createdAt,value
2018-10-12T00:01:37.486Z,99985.08
2018-10-12T00:04:40.470Z,99991.30
2018-10-12T00:07:43.448Z,99991.89
2018-10-12T00:10:46.357Z,99989.69
2018-10-12T00:13:49.285Z,99992.37
2018-10-12T00:16:52.260Z,99992.57
2018-10-12T00:19:55.197Z,99993.91
2018-10-12T00:22:58.085Z,99995.80
2018-10-12T00:26:01.023Z,99992.13
2018-10-12T00:29:04.021Z,99996.59
2018-10-12T00:32:07.030Z,99998.77
2018-10-12T00:35:10.041Z,99992.37
2018-10-12T00:38:13.065Z,99985.47
2018-10-12T00:41:16.014Z,99991.11
2018-10-12T00:44:18.945Z,99989.58
2018-10-12T00:47:22.029Z,99992.57
2018-10-12T00:50:24.974Z,99989.41
2018-10-12T00:53:27.933Z,99986.34
2018-10-12T00:56:30.802Z,99990.08
2018-10-12T00:59:33.735Z,99993.12
2018-10-12T01:02:36.734Z,99988.70
2018-10-12T01:05:39.664Z,99992.17
2018-10-12T01:08:42.660Z,100005.42
2018-10-12T01:11:45.650Z,100006.77
2018-10-12T01:14:48.574Z,100010.52
2018-10-12T01:17:51.543Z,100008.55
2018-10-12T01:20:54.612Z,100009.45
2018-10-12T01:23:57.669Z,100002.63
2018-10-12T01:27:00.692Z,100012.69
2018-10-12T01:30:04.254Z,100007.64
2018-10-12T01:33:07.190Z,100007.64
2018-10-12T01:36:10.140Z,100018.53
2018-10-12T01:39:13.105Z,100020.93
2018-10-12T01:42:16.037Z,100021.84
2018-10-12T01:45:19.027Z,100024.25
2018-10-12T01:48:21.988Z,100022.52
2018-10-12T01:51:24.922Z,100016.78
2018-10-12T01:54:27.862Z,100027.16
2018-10-12T01:57:30.797Z,100026.25
2018-10-12T02:00:33.784Z,100015.09
2018-10-12T02:03:36.732Z,100016.86
2018-10-12T02:06:39.681Z,100022.58
2018-10-12T02:09:42.729Z,100030.75
2018-10-12T02:12:45.634Z,100029.08
2018-10-12T02:15:48.596Z,100027.94
2018-10-12T02:18:51.498Z,100028.89
2018-10-12T02:21:54.529Z,100027.94
2018-10-12T02:24:57.463Z,100020.84
2018-10-12T02:28:00.379Z,100009.13
2018-10-12T02:31:03.262Z,100009.79
2018-10-12T02:34:06.454Z,100025.21
2018-10-12T02:37:09.424Z,100031.84
2018-10-12T02:40:12.379Z,100033.18
2018-10-12T02:43:15.351Z,100041.38
2018-10-12T02:46:18.331Z,100055.03
2018-10-12T02:49:21.249Z,100061.28
2018-10-12T02:52:24.154Z,100071.48
2018-10-12T02:55:27.059Z,100063.58
2018-10-12T02:58:29.997Z,100059.95
2018-10-12T03:01:32.937Z,100060.73
2018-10-12T03:04:35.903Z,100068.39
2018-10-12T03:07:38.850Z,100075.48
2018-10-12T03:10:41.750Z,100079.77
2018-10-12T03:13:44.749Z,100079.66
2018-10-12T03:16:47.701Z,100092.57
2018-10-12T03:19:50.616Z,100102.80
2018-10-12T03:22:53.524Z,100100.36
2018-10-12T03:25:56.535Z,100108.16
2018-10-12T03:28:59.621Z,100105.61
2018-10-12T03:32:02.641Z,100119.86
2018-10-12T03:35:05.712Z,100122.20
2018-10-12T03:38:08.732Z,100130.58
2018-10-12T03:41:11.728Z,100138.63
2018-10-12T03:44:14.736Z,100134.75
2018-10-12T03:47:17.740Z,100135.41
2018-10-12T03:50:20.744Z,100140.70
2018-10-12T03:53:23.953Z,100136.14
2018-10-12T03:56:27.132Z,100126.36
2018-10-12T03:59:30.113Z,100138.16
2018-10-12T04:02:33.018Z,100135.19
2018-10-12T04:05:35.991Z,100156.64
2018-10-12T04:08:38.904Z,100156.72
2018-10-12T04:11:41.802Z,100155.52
2018-10-12T04:14:44.752Z,100160.95
2018-10-12T04:17:47.816Z,100168.74
2018-10-12T04:20:50.784Z,100167.58
2018-10-12T04:23:53.746Z,100183.92
2018-10-12T04:26:56.670Z,100185.70
2018-10-12T04:29:59.605Z,100181.96
2018-10-12T04:33:02.515Z,100189.67
2018-10-12T04:36:05.976Z,100193.69
2018-10-12T04:39:26.085Z,100202.45
2018-10-12T04:42:29.037Z,100202.02
2018-10-12T04:45:32.065Z,100202.77
2018-10-12T04:48:36.340Z,100197.92
2018-10-12T04:51:44.812Z,100212.36
2018-10-12T04:54:47.790Z,100192.19
2018-10-12T04:57:50.862Z,100188.50
2018-10-12T05:00:53.760Z,100195.11
2018-10-12T05:03:56.779Z,100199.83
2018-10-12T05:06:59.774Z,100207.73
2018-10-12T05:10:02.773Z,100210.18
2018-10-12T05:13:06.273Z,100227.03
2018-10-12T05:16:09.319Z,100234.81
2018-10-12T05:19:12.281Z,100235.22
2018-10-12T05:22:15.297Z,100243.67
2018-10-12T05:25:18.205Z,100243.97
2018-10-12T05:28:21.618Z,100249.03
2018-10-12T05:31:24.705Z,100250.60
2018-10-12T05:34:27.585Z,100256.34
2018-10-12T05:37:30.494Z,100261.61
2018-10-12T05:40:33.457Z,100273.59
2018-10-12T05:43:36.522Z,100281.16
2018-10-12T05:46:39.701Z,100293.28
2018-10-12T05:49:58.438Z,100297.30
2018-10-12T05:53:01.414Z,100306.47
2018-10-12T05:56:05.536Z,100306.30
2018-10-12T05:59:08.993Z,100311.90
2018-10-12T06:02:12.032Z,100314.41
2018-10-12T06:05:14.974Z,100326.50
2018-10-12T06:08:17.942Z,100325.53
2018-10-12T06:11:21.126Z,100323.39
2018-10-12T06:14:24.501Z,100335.68
2018-10-12T06:17:27.418Z,100347.62
2018-10-12T06:20:30.350Z,100351.41
2018-10-12T06:23:33.719Z,100354.31
2018-10-12T06:26:37.408Z,100353.27
2018-10-12T06:29:41.150Z,100357.58
2018-10-12T06:32:44.848Z,100357.58
2018-10-12T06:35:48.636Z,100359.84
2018-10-12T06:38:52.270Z,100358.91
2018-10-12T06:41:56.027Z,100371.95
2018-10-12T06:45:00.867Z,100368.94
2018-10-12T06:48:04.592Z,100375.39
2018-10-12T06:51:07.857Z,100379.35
2018-10-12T06:54:11.157Z,100372.59
2018-10-12T06:57:14.075Z,100376.64
2018-10-12T07:00:17.017Z,100374.34
2018-10-12T07:03:20.514Z,100382.01
2018-10-12T07:06:23.058Z,100390.05
2018-10-12T07:09:26.056Z,100395.37
2018-10-12T07:12:29.149Z,100396.24
2018-10-12T07:15:32.052Z,100399.66
2018-10-12T07:18:34.964Z,100396.81
2018-10-12T07:21:37.889Z,100412.09
2018-10-12T07:24:40.779Z,100415.00
2018-10-12T07:27:43.740Z,100422.45
2018-10-12T07:30:47.796Z,100423.37
2018-10-12T07:33:50.832Z,100426.59
2018-10-12T07:36:53.739Z,100425.48
2018-10-12T07:39:56.618Z,100440.27
2018-10-12T07:42:59.558Z,100440.58
2018-10-12T07:46:02.454Z,100447.05
2018-10-12T07:49:05.629Z,100448.22
2018-10-12T07:52:08.613Z,100449.80
2018-10-12T07:55:11.560Z,100454.05
2018-10-12T07:58:14.462Z,100467.53
2018-10-12T08:01:17.419Z,100464.78
2018-10-12T08:04:20.349Z,100471.36
2018-10-12T08:07:23.283Z,100460.45
2018-10-12T08:10:26.237Z,100464.34
2018-10-12T08:13:29.185Z,100460.95
2018-10-12T08:16:32.130Z,100467.83
2018-10-12T08:19:35.199Z,100460.08
2018-10-12T08:22:38.190Z,100464.83
2018-10-12T08:25:41.183Z,100472.65
2018-10-12T08:28:44.179Z,100473.99
2018-10-12T08:31:47.145Z,100475.50
2018-10-12T08:34:50.105Z,100489.14
2018-10-12T08:37:53.076Z,100488.20
2018-10-12T08:40:56.036Z,100493.50
2018-10-12T08:43:59.011Z,100498.47
2018-10-12T08:47:01.923Z,100508.41
2018-10-12T08:50:04.957Z,100504.14
2018-10-12T08:53:07.916Z,100506.72
2018-10-12T08:56:10.861Z,100513.83
2018-10-12T08:59:13.825Z,100513.73
2018-10-12T09:02:16.758Z,100518.02
2018-10-12T09:05:19.658Z,100526.22
2018-10-12T09:08:22.658Z,100527.06
2018-10-12T09:11:25.537Z,100527.69
2018-10-12T09:14:28.438Z,100519.60
2018-10-12T09:17:31.366Z,100524.91
2018-10-12T09:20:34.709Z,100534.53
2018-10-12T09:23:37.563Z,100520.29
2018-10-12T09:26:40.463Z,100532.56
2018-10-12T09:29:43.370Z,100532.31
2018-10-12T09:32:46.360Z,100531.77
2018-10-12T09:35:49.266Z,100531.22
2018-10-12T09:38:52.146Z,100533.47
2018-10-12T09:41:55.062Z,100529.59
2018-10-12T09:44:58.040Z,100526.75
2018-10-12T09:48:00.981Z,100532.27
2018-10-12T09:51:03.905Z,100525.89
2018-10-12T09:54:07.049Z,100527.97
2018-10-12T09:57:15.702Z,100531.83
2018-10-12T10:00:24.276Z,100530.12
2018-10-12T10:03:32.805Z,100529.61
2018-10-12T10:06:35.804Z,100532.33
2018-10-12T10:09:38.698Z,100515.10
2018-10-12T10:12:41.585Z,100511.60
2018-10-12T10:15:44.564Z,100511.84
2018-10-12T10:18:47.541Z,100508.47
2018-10-12T10:21:50.485Z,100508.19
2018-10-12T10:24:53.461Z,100514.89
2018-10-12T10:27:56.362Z,100516.74
2018-10-12T10:30:59.294Z,100524.64
2018-10-12T10:34:02.297Z,100521.67
2018-10-12T10:37:05.764Z,100517.16
2018-10-12T10:40:08.816Z,100514.52
2018-10-12T10:43:11.752Z,100515.27
2018-10-12T10:46:14.796Z,100502.61
2018-10-12T10:49:17.706Z,100504.39
2018-10-12T10:52:20.684Z,100511.32
2018-10-12T10:55:23.612Z,100500.25
2018-10-12T10:58:26.552Z,100495.97
2018-10-12T11:01:29.548Z,100480.18
2018-10-12T11:04:33.005Z,100480.69
2018-10-12T11:07:35.960Z,100479.02
2018-10-12T11:10:38.923Z,100472.40
2018-10-12T11:13:41.871Z,100470.27
2018-10-12T11:16:44.788Z,100480.81
2018-10-12T11:19:47.712Z,100474.84
2018-10-12T11:22:50.694Z,100470.67
2018-10-12T11:25:53.669Z,100475.59
2018-10-12T11:28:56.570Z,100484.87
2018-10-12T11:31:59.489Z,100486.08
2018-10-12T11:35:02.458Z,100475.88
2018-10-12T11:38:05.400Z,100482.79
2018-10-12T11:41:08.368Z,100471.91
2018-10-12T11:44:11.293Z,100475.44
2018-10-12T11:47:14.190Z,100477.64
2018-10-12T11:50:17.174Z,100456.83
2018-10-12T11:53:20.321Z,100457.32
2018-10-12T11:56:23.269Z,100458.55
2018-10-12T11:59:26.204Z,100460.86
2018-10-12T12:02:29.147Z,100459.67
2018-10-12T12:05:32.101Z,100456.90
2018-10-12T12:08:35.030Z,100458.08
2018-10-12T12:11:37.895Z,100457.79
2018-10-12T12:14:40.798Z,100457.91
2018-10-12T12:17:43.731Z,100467.26
2018-10-12T12:20:46.676Z,100463.70
2018-10-12T12:23:49.620Z,100450.47
2018-10-12T12:26:52.519Z,100445.87
2018-10-12T12:29:55.478Z,100457.61
2018-10-12T12:32:58.414Z,100445.98
2018-10-12T12:36:01.465Z,100449.92
2018-10-12T12:39:06.284Z,100447.80
2018-10-12T12:42:09.224Z,100454.56
2018-10-12T12:45:12.214Z,100447.80
2018-10-12T12:48:15.238Z,100449.34
2018-10-12T12:51:18.030Z,100447.72
2018-10-12T12:54:20.957Z,100442.34
2018-10-12T12:57:23.873Z,100448.98
2018-10-12T13:00:26.764Z,100451.41
2018-10-12T13:03:29.681Z,100450.42
2018-10-12T13:06:32.661Z,100445.20
2018-10-12T13:09:35.524Z,100454.37
2018-10-12T13:12:38.480Z,100450.77
2018-10-12T13:15:41.430Z,100453.64
2018-10-12T13:18:44.342Z,100453.39
2018-10-12T13:21:47.261Z,100458.30
2018-10-12T13:24:50.174Z,100466.47
2018-10-12T13:27:53.084Z,100469.98
2018-10-12T13:30:56.053Z,100465.14
2018-10-12T13:33:58.968Z,100463.09
2018-10-12T13:37:01.916Z,100467.21
2018-10-12T13:40:04.990Z,100465.73
2018-10-12T13:43:07.838Z,100452.31
2018-10-12T13:46:10.785Z,100469.70
2018-10-12T13:49:13.730Z,100461.01
2018-10-12T13:52:16.669Z,100466.56
2018-10-12T13:55:19.588Z,100474.06
2018-10-12T13:58:22.492Z,100464.28
2018-10-12T14:01:25.457Z,100466.28
2018-10-12T14:04:28.874Z,100464.20
2018-10-12T14:07:31.778Z,100469.41
2018-10-12T14:10:34.742Z,100464.95
2018-10-12T14:13:37.682Z,100470.22
2018-10-12T14:16:40.562Z,100471.05
2018-10-12T14:19:43.928Z,100478.14
2018-10-12T14:22:46.809Z,100473.09
2018-10-12T14:25:49.784Z,100472.70
2018-10-12T14:28:52.726Z,100482.65
2018-10-12T14:31:55.615Z,100479.71
2018-10-12T14:34:58.521Z,100475.31
2018-10-12T14:38:01.676Z,100469.61
2018-10-12T14:41:04.448Z,100481.64
2018-10-12T14:44:07.548Z,100474.83
2018-10-12T14:47:10.362Z,100476.34
2018-10-12T14:50:13.357Z,100481.00
2018-10-12T14:53:16.278Z,100480.94
2018-10-12T14:56:19.166Z,100483.39
2018-10-12T14:59:22.104Z,100481.06
2018-10-12T15:02:25.038Z,100479.56
2018-10-12T15:05:28.034Z,100480.25
2018-10-12T15:08:30.911Z,100481.76
2018-10-12T15:11:33.909Z,100464.73
2018-10-12T15:14:54.077Z,100470.48
2018-10-12T15:17:57.965Z,100469.98
2018-10-12T15:21:00.948Z,100464.58
2018-10-12T15:24:03.864Z,100473.27
2018-10-12T15:27:07.049Z,100470.95
2018-10-12T15:30:10.633Z,100468.22
2018-10-12T15:33:13.550Z,100471.47
2018-10-12T15:36:16.434Z,100471.86
2018-10-12T15:39:19.318Z,100469.55
2018-10-12T15:42:22.321Z,100466.71
2018-10-12T15:45:25.593Z,100468.80
2018-10-12T15:48:28.568Z,100474.55
2018-10-12T15:51:31.477Z,100470.70
2018-10-12T15:54:34.412Z,100478.19
2018-10-12T15:57:37.358Z,100465.45
2018-10-12T16:00:40.329Z,100470.15
2018-10-12T16:03:43.282Z,100482.78
2018-10-12T16:06:46.246Z,100473.39
2018-10-12T16:09:50.589Z,100471.98
2018-10-12T16:12:53.544Z,100468.91
2018-10-12T16:15:56.471Z,100473.05
2018-10-12T16:18:59.500Z,100472.41
2018-10-12T16:22:02.393Z,100483.45
2018-10-12T16:25:22.656Z,100478.45
2018-10-12T16:28:25.620Z,100482.09
2018-10-12T16:31:28.617Z,100482.69
2018-10-12T16:34:31.561Z,100489.08
2018-10-12T16:37:34.628Z,100497.15
2018-10-12T16:40:37.608Z,100500.16
2018-10-12T16:43:40.540Z,100500.25
2018-10-12T16:46:43.424Z,100505.77
2018-10-12T16:49:46.335Z,100509.52
2018-10-12T16:52:49.297Z,100508.17
2018-10-12T16:55:52.257Z,100510.99
2018-10-12T16:58:55.190Z,100511.37
2018-10-12T17:01:58.196Z,100513.41
2018-10-12T17:05:01.161Z,100508.97
2018-10-12T17:08:04.140Z,100511.47
2018-10-12T17:11:07.146Z,100509.07
2018-10-12T17:14:10.046Z,100506.56
2018-10-12T17:17:12.973Z,100514.07
2018-10-12T17:20:15.937Z,100515.72
2018-10-12T17:23:18.869Z,100518.84
2018-10-12T17:26:21.786Z,100522.33
2018-10-12T17:29:24.692Z,100522.06
2018-10-12T17:32:27.622Z,100518.59
2018-10-12T17:35:30.596Z,100522.63
2018-10-12T17:38:33.541Z,100528.33
2018-10-12T17:41:36.449Z,100537.72
2018-10-12T17:44:39.382Z,100542.97
2018-10-12T17:47:42.291Z,100544.50
2018-10-12T17:50:45.245Z,100545.39
2018-10-12T17:53:48.161Z,100543.27
2018-10-12T17:56:51.114Z,100549.23
2018-10-12T17:59:54.212Z,100549.70
2018-10-12T18:02:57.181Z,100548.44
2018-10-12T18:06:01.084Z,100549.21
2018-10-12T18:09:06.421Z,100550.02
2018-10-12T18:12:09.402Z,100547.27
2018-10-12T18:15:12.862Z,100558.38
2018-10-12T18:18:15.782Z,100548.06
2018-10-12T18:21:18.701Z,100540.95
2018-10-12T18:24:21.645Z,100532.97
2018-10-12T18:27:24.591Z,100541.90
2018-10-12T18:30:27.551Z,100545.67
2018-10-12T18:33:30.453Z,100540.86
2018-10-12T18:36:33.755Z,100543.09
2018-10-12T18:39:36.641Z,100543.94
2018-10-12T18:42:39.641Z,100546.16
2018-10-12T18:45:42.651Z,100548.45
2018-10-12T18:48:45.560Z,100554.55
2018-10-12T18:51:48.547Z,100562.33
2018-10-12T18:54:51.497Z,100549.33
2018-10-12T18:57:54.458Z,100565.80
2018-10-12T19:00:57.310Z,100558.77
2018-10-12T19:04:00.263Z,100562.63
2018-10-12T19:07:03.247Z,100564.07
2018-10-12T19:10:06.300Z,100558.84
2018-10-12T19:13:09.250Z,100570.81
2018-10-12T19:16:12.217Z,100569.94
2018-10-12T19:19:15.072Z,100571.68
2018-10-12T19:22:18.022Z,100574.17
2018-10-12T19:25:20.989Z,100581.98
2018-10-12T19:28:23.941Z,100584.58
2018-10-12T19:31:26.921Z,100584.19
2018-10-12T19:34:29.821Z,100579.86
2018-10-12T19:37:32.758Z,100587.28
2018-10-12T19:40:35.713Z,100588.50
2018-10-12T19:43:38.609Z,100593.52
2018-10-12T19:46:41.551Z,100590.02
2018-10-12T19:49:44.481Z,100588.12
2018-10-12T19:52:47.468Z,100588.05
2018-10-12T19:55:50.400Z,100580.52
2018-10-12T19:58:53.344Z,100594.56
2018-10-12T20:01:56.343Z,100590.41
2018-10-12T20:04:59.301Z,100599.28
2018-10-12T20:08:02.284Z,100596.03
2018-10-12T20:11:05.241Z,100596.78
2018-10-12T20:14:08.825Z,100603.05
2018-10-12T20:17:11.770Z,100602.00
2018-10-12T20:20:14.774Z,100598.31
2018-10-12T20:23:17.750Z,100602.38
2018-10-12T20:26:20.673Z,100607.77
2018-10-12T20:29:23.592Z,100602.55
2018-10-12T20:32:26.543Z,100606.22
2018-10-12T20:35:29.478Z,100608.74
2018-10-12T20:38:32.422Z,100605.84
2018-10-12T20:41:35.322Z,100578.30
2018-10-12T20:44:38.250Z,100617.14
2018-10-12T20:47:41.203Z,100614.41
2018-10-12T20:50:44.216Z,100610.84
2018-10-12T20:53:47.101Z,100616.25
2018-10-12T20:56:50.061Z,100618.55
2018-10-12T20:59:53.118Z,100615.73
2018-10-12T21:02:55.989Z,100620.65
2018-10-12T21:05:58.972Z,100617.22
2018-10-12T21:09:04.333Z,100614.98
2018-10-12T21:12:07.237Z,100617.95
2018-10-12T21:15:10.161Z,100610.66
2018-10-12T21:18:13.064Z,100618.34
2018-10-12T21:21:15.970Z,100616.27
2018-10-12T21:24:18.887Z,100616.72
2018-10-12T21:27:21.769Z,100621.19
2018-10-12T21:30:24.718Z,100612.70
2018-10-12T21:33:27.658Z,100613.88
2018-10-12T21:36:30.598Z,100611.41
2018-10-12T21:39:33.493Z,100611.81
2018-10-12T21:42:36.421Z,100610.63
2018-10-12T21:45:39.322Z,100614.78
2018-10-12T21:48:42.234Z,100614.25
2018-10-12T21:51:45.161Z,100617.42
2018-10-12T21:54:54.917Z,100613.60
2018-10-12T21:57:57.860Z,100619.02
2018-10-12T22:01:03.762Z,100620.34
2018-10-12T22:04:06.718Z,100617.16
2018-10-12T22:07:09.676Z,100615.81
2018-10-12T22:10:12.554Z,100616.24
2018-10-12T22:13:15.472Z,100617.39
2018-10-12T22:16:18.389Z,100618.06
2018-10-12T22:19:21.363Z,100612.20
2018-10-12T22:22:24.261Z,100615.63
2018-10-12T22:25:27.248Z,100616.41
2018-10-12T22:28:30.217Z,100617.88
2018-10-12T22:31:33.094Z,100608.21
2018-10-12T22:34:35.954Z,100608.02
2018-10-12T22:37:38.908Z,100602.03
2018-10-12T22:40:41.831Z,100600.05
2018-10-12T22:43:44.800Z,100597.04
2018-10-12T22:46:47.737Z,100594.06
2018-10-12T22:49:50.677Z,100591.09
2018-10-12T22:52:53.586Z,100590.70
2018-10-12T22:55:56.533Z,100585.08
2018-10-12T22:58:59.477Z,100583.94
2018-10-12T23:02:02.441Z,100579.82
2018-10-12T23:05:05.816Z,100591.86
2018-10-12T23:08:08.784Z,100586.70
2018-10-12T23:11:11.722Z,100585.33
2018-10-12T23:14:14.679Z,100583.70
2018-10-12T23:17:17.648Z,100589.01
2018-10-12T23:20:20.611Z,100580.96
2018-10-12T23:23:23.570Z,100581.05
2018-10-12T23:26:26.508Z,100575.54
2018-10-12T23:29:29.478Z,100574.86
2018-10-12T23:32:32.389Z,100577.00
2018-10-12T23:35:35.332Z,100571.97
2018-10-12T23:38:38.258Z,100570.55
2018-10-12T23:41:41.221Z,100573.08
2018-10-12T23:44:44.180Z,100566.36
2018-10-12T23:47:47.084Z,100569.05
2018-10-12T23:50:49.983Z,100567.18
2018-10-12T23:53:52.921Z,100566.23
2018-10-12T23:56:55.854Z,100565.64
2018-10-12T23:59:58.798Z,100564.36
